Airfield :
LOGIN :

Register | Disclaimer

   EN    FR    IT 

 










Legend :    VFR   Marginal VFR   IFR   Intensive IFR   Very Intensive IFR
Visi :
Ceiling :
>= 8 km
>= 3000ft
5 to 8 km
1000 to 3000 ft
1500m to 5 km
500 to 1000 ft
800 to 1500m
200 to 500 ft
< 800m
< 200 ft
Symbols :   Thunderstorms  Fog  Heavy snow  Heavy precipitations  Wind > 20 kt
SIGMETs :     Misc.  Thunderstorms  Icing  Turbulence  Mountain Waves  Volcanic Ashes






- Airport Elevation : 65 ft


EEEI - Ämari Air Base

CURRENT METAR :
  • 291350Z 20008KT 160V220 9999 BKN017 BKN041 03/M01 Q0999 R24/290095 NOSIG

EXPIRED METARs :
  • 291250Z 21006KT 9999 FEW016 SCT025 BKN029 03/M01 Q0999 R24/290095 NOSIG
  • 291150Z 21011KT 9999 VCSH FEW015 BKN017 BKN023 02/M01 Q0999 R24/290095 NOSIG
  • 291050Z 21012KT 9000 -SN BKN013 BKN022 OVC027 01/M01 Q1000 R24/290095 TEMPO 2000 SN

TAF TAF EEEI
Valid from the 29 at 12:00 until the 01 at 12:00 UTC


291130Z 2912/0112 18010KT 9999 SCT015 BKN020
PROB40
TEMPO 2912/2914 1500 SHSN BKN006 SCT012CB
TEMPO 2914/2922 2000 SHSNRA BKN005 SCT014CB
TEMPO 2922/0102 BKN007
TEMPO 0102/0110 1500 RASN OVC004



MET'MAP, your aeronautical weather chart ! - Copyright ORBIFLY December 2007 - Disclaimer

ORBIFLY MET'MAP TEAM :

Programming & Development : Alexandra Zaïnal
Concept & original design : Baudouin d'Aumeries
Assistance for programming : Marc-Olivier Méhu
Technical & hardware support : Manuel Goepfert

Contact : metmap@orbifly.com




SOURCES & CREDITS :

   NOAA